Time;durP1;ratioP1;P1;durP2;ratioP2;P2;SDS_P1;SDS_P2;PMS_P1;PMS_P2;Temp;Humidity;BMP_temperature;BMP_pressure;BME280_temperature;BME280_humidity;BME280_pressure;Samples;Min_cycle;Max_cycle;Signal;HPM_P1;HPM_P2
2022/02/26 00:00:04;;;;;;;0.20;0.10;;;12.60;99.90;;;;;;25441607;23;20170;-68
2022/02/26 00:10:10;;;;;;;0.20;0.10;;;12.60;99.90;;;;;;25445244;23;20259;-69
2022/02/26 00:20:16;;;;;;;0.20;0.10;;;12.60;99.90;;;;;;25420464;23;20185;-64
2022/02/26 00:30:20;;;;;;;0.20;0.10;;;12.60;99.90;;;;;;25445785;23;20203;-64
2022/02/26 00:40:25;;;;;;;0.20;0.10;;;12.60;99.90;;;;;;25450324;23;20167;-64
2022/02/26 00:50:29;;;;;;;0.20;0.10;;;12.60;99.90;;;;;;25427808;23;20207;-64
2022/02/26 01:00:34;;;;;;;0.20;0.10;;;12.60;99.90;;;;;;25426780;23;20191;-63
2022/02/26 01:10:38;;;;;;;0.20;0.10;;;12.80;99.90;;;;;;25452568;23;20171;-63
2022/02/26 01:20:43;;;;;;;0.20;0.10;;;12.80;99.90;;;;;;25426268;23;20174;-64
2022/02/26 01:30:47;;;;;;;0.20;0.10;;;12.60;99.90;;;;;;25425205;23;20192;-63
2022/02/26 01:40:52;;;;;;;0.20;0.00;;;12.50;99.90;;;;;;25449754;23;20184;-64
2022/02/26 01:50:56;;;;;;;0.20;0.10;;;12.40;99.90;;;;;;25448270;23;20191;-64
2022/02/26 02:01:01;;;;;;;0.20;0.10;;;12.20;99.90;;;;;;25449028;23;20167;-64
2022/02/26 02:11:06;;;;;;;0.20;0.10;;;12.00;99.90;;;;;;25450152;23;20172;-63
2022/02/26 02:21:12;;;;;;;0.20;0.10;;;11.90;99.90;;;;;;25449333;23;20187;-63
2022/02/26 02:31:18;;;;;;;0.20;0.10;;;11.80;99.90;;;;;;25448483;23;20187;-72
2022/02/26 02:41:23;;;;;;;0.20;0.10;;;11.90;99.90;;;;;;25448747;23;20195;-72
2022/02/26 02:51:28;;;;;;;0.20;0.10;;;11.80;99.90;;;;;;25447211;23;20251;-73
2022/02/26 03:01:32;;;;;;;0.20;0.10;;;11.90;99.90;;;;;;25422872;23;20202;-72
2022/02/26 03:11:38;;;;;;;0.20;0.10;;;11.90;99.90;;;;;;25448098;23;20164;-73
2022/02/26 03:21:41;;;;;;;0.20;0.10;;;11.90;99.90;;;;;;25447607;23;20199;-64
2022/02/26 03:31:47;;;;;;;0.20;0.10;;;11.90;99.90;;;;;;25447557;23;20187;-65
2022/02/26 03:41:52;;;;;;;0.20;0.10;;;12.00;99.90;;;;;;25447233;23;20188;-65
2022/02/26 03:51:58;;;;;;;0.20;0.10;;;12.00;99.90;;;;;;25447218;23;20202;-65
2022/02/26 04:02:01;;;;;;;0.20;0.10;;;11.90;99.90;;;;;;25446091;23;20196;-65
2022/02/26 04:12:11;;;;;;;0.20;0.10;;;11.90;99.90;;;;;;25448397;23;20172;-65
2022/02/26 04:22:15;;;;;;;0.20;0.00;;;11.90;99.90;;;;;;25452935;23;20188;-73
2022/02/26 04:32:20;;;;;;;0.20;0.10;;;11.90;99.90;;;;;;25452646;23;20206;-74
2022/02/26 04:42:27;;;;;;;0.20;0.10;;;11.90;99.90;;;;;;25453699;23;20184;-74
2022/02/26 04:52:32;;;;;;;0.20;0.10;;;11.80;99.90;;;;;;25451905;23;20210;-74
2022/02/26 05:02:36;;;;;;;0.20;0.10;;;11.80;99.90;;;;;;25450122;23;20187;-73
2022/02/26 05:12:42;;;;;;;0.20;0.10;;;11.90;99.90;;;;;;25449226;23;20168;-73
2022/02/26 05:22:46;;;;;;;0.20;0.10;;;12.10;99.90;;;;;;25450511;23;20190;-75
2022/02/26 05:32:51;;;;;;;0.20;0.10;;;12.20;99.90;;;;;;25424850;23;20207;-63
2022/02/26 05:42:55;;;;;;;0.20;0.10;;;12.40;99.90;;;;;;25448584;23;20188;-64
2022/02/26 05:53:00;;;;;;;0.20;0.00;;;12.10;99.90;;;;;;25423297;23;20199;-64
2022/02/26 06:03:04;;;;;;;0.23;0.23;;;11.90;99.90;;;;;;25448382;23;20195;-62
2022/02/26 06:13:09;;;;;;;0.20;0.10;;;11.10;99.90;;;;;;25447450;23;20171;-63
2022/02/26 06:23:13;;;;;;;0.20;0.10;;;10.80;99.90;;;;;;25420656;23;20191;-63
2022/02/26 06:33:18;;;;;;;0.20;0.10;;;10.80;99.90;;;;;;25445930;23;20199;-63
2022/02/26 06:43:24;;;;;;;0.20;0.10;;;10.80;99.90;;;;;;25445303;23;20230;-75
2022/02/26 06:53:30;;;;;;;0.20;0.10;;;10.70;99.90;;;;;;25445572;23;20261;-73
2022/02/26 07:03:34;;;;;;;0.20;0.10;;;10.80;99.90;;;;;;25446186;23;20198;-72
2022/02/26 07:13:40;;;;;;;0.20;0.10;;;11.00;99.90;;;;;;25446070;23;20176;-72
2022/02/26 07:23:44;;;;;;;0.20;0.10;;;11.20;99.90;;;;;;25442550;23;20198;-75
2022/02/26 07:33:50;;;;;;;0.20;0.10;;;11.60;99.90;;;;;;25443659;23;20192;-68
2022/02/26 07:43:54;;;;;;;0.20;0.10;;;11.80;99.90;;;;;;25443515;23;20211;-65
2022/02/26 07:54:00;;;;;;;0.20;0.10;;;11.90;99.90;;;;;;25425525;23;20195;-65
2022/02/26 08:04:04;;;;;;;0.20;0.10;;;11.90;99.90;;;;;;25450222;23;20194;-70
2022/02/26 08:14:09;;;;;;;0.20;0.10;;;11.80;99.90;;;;;;25448990;23;20171;-69
2022/02/26 08:24:14;;;;;;;0.20;0.10;;;12.20;99.90;;;;;;25423175;23;20183;-69
2022/02/26 08:34:22;;;;;;;0.20;0.10;;;12.40;99.90;;;;;;25450338;23;20199;-70
2022/02/26 08:44:26;;;;;;;0.20;0.10;;;12.80;99.90;;;;;;25449536;23;20191;-70
2022/02/26 08:54:31;;;;;;;0.20;0.10;;;12.90;99.90;;;;;;25447994;23;20195;-63
2022/02/26 09:04:36;;;;;;;0.20;0.10;;;12.90;99.90;;;;;;25445379;23;20188;-66
2022/02/26 09:14:41;;;;;;;0.20;0.13;;;13.10;99.90;;;;;;25420145;23;20175;-64
2022/02/26 09:24:47;;;;;;;0.20;0.10;;;12.90;99.90;;;;;;25446600;23;20206;-64
2022/02/26 09:34:52;;;;;;;0.20;0.10;;;13.10;99.90;;;;;;25443616;23;20626;-65
2022/02/26 09:44:57;;;;;;;0.20;0.00;;;13.30;99.90;;;;;;25444295;23;20184;-64
2022/02/26 09:55:03;;;;;;;0.20;0.00;;;13.20;99.90;;;;;;25437897;23;20196;-65
2022/02/26 10:05:10;;;;;;;0.20;0.10;;;13.10;99.90;;;;;;25411771;23;20187;-65
2022/02/26 10:15:28;;;;;;;0.20;0.10;;;13.50;99.90;;;;;;25441565;23;20178;-65
2022/02/26 10:25:32;;;;;;;0.20;0.10;;;13.50;99.90;;;;;;25440530;23;20203;-65
2022/02/26 10:35:41;;;;;;;0.20;0.00;;;13.50;99.90;;;;;;25434371;23;20226;-66
2022/02/26 10:45:45;;;;;;;0.20;0.10;;;14.00;99.90;;;;;;25440322;23;20184;-64
2022/02/26 10:55:52;;;;;;;0.20;0.10;;;14.40;99.90;;;;;;25438217;23;20179;-66
2022/02/26 11:05:56;;;;;;;0.20;0.10;;;14.10;99.90;;;;;;25438591;23;20211;-64
2022/02/26 11:16:02;;;;;;;0.20;0.10;;;13.90;99.90;;;;;;25437189;23;20178;-65
2022/02/26 11:26:11;;;;;;;0.20;0.00;;;13.90;99.90;;;;;;25438111;23;20186;-64
2022/02/26 11:36:17;;;;;;;0.20;0.10;;;14.40;99.90;;;;;;25395675;23;20214;-66
2022/02/26 11:46:26;;;;;;;0.20;0.10;;;14.00;99.90;;;;;;25432690;23;20198;-65
2022/02/26 11:56:42;;;;;;;0.20;0.10;;;14.20;99.90;;;;;;25410009;23;20164;-68
2022/02/26 12:06:56;;;;;;;2.50;2.30;;;14.40;99.90;;;;;;25436428;23;20195;-68
2022/02/26 12:17:08;;;;;;;0.20;0.10;;;14.60;99.90;;;;;;25436160;23;20166;-68
2022/02/26 12:27:12;;;;;;;0.20;0.10;;;14.40;99.90;;;;;;25435161;23;20225;-71
2022/02/26 12:37:21;;;;;;;0.20;0.10;;;14.50;99.90;;;;;;25439258;23;20278;-66
2022/02/26 12:47:26;;;;;;;0.20;0.10;;;15.50;99.90;;;;;;25441092;23;20210;-66
2022/02/26 12:57:36;;;;;;;0.20;0.10;;;15.30;99.90;;;;;;25440383;23;20262;-64
2022/02/26 13:07:40;;;;;;;0.20;0.10;;;15.40;99.90;;;;;;25390887;23;20195;-65
2022/02/26 13:17:48;;;;;;;0.20;0.10;;;15.30;99.90;;;;;;25442421;23;20184;-65
2022/02/26 13:27:52;;;;;;;0.20;0.10;;;16.90;99.90;;;;;;25444774;23;20188;-68
2022/02/26 13:37:59;;;;;;;0.20;0.10;;;16.80;99.90;;;;;;25444149;23;20230;-68
2022/02/26 13:48:14;;;;;;;0.20;0.10;;;16.20;99.90;;;;;;25444220;23;20202;-67
2022/02/26 13:58:27;;;;;;;0.20;0.10;;;15.20;99.90;;;;;;25408130;23;20256;-68
2022/02/26 14:08:32;;;;;;;0.20;0.10;;;14.80;99.90;;;;;;25441056;23;20193;-69
2022/02/26 14:18:38;;;;;;;0.20;0.00;;;14.50;99.90;;;;;;25414200;23;20206;-65
2022/02/26 14:28:43;;;;;;;0.20;0.00;;;14.30;99.90;;;;;;25436788;23;20223;-67
2022/02/26 14:38:48;;;;;;;0.20;0.10;;;14.00;99.90;;;;;;25439519;23;20572;-66
2022/02/26 14:48:52;;;;;;;0.20;0.10;;;13.70;99.90;;;;;;25411883;23;20207;-67
2022/02/26 14:58:57;;;;;;;0.20;0.10;;;13.70;99.90;;;;;;25436336;23;20171;-69
2022/02/26 15:09:02;;;;;;;0.20;0.10;;;13.60;99.90;;;;;;25434991;23;20205;-67
2022/02/26 15:19:07;;;;;;;0.20;0.10;;;13.40;99.90;;;;;;25434579;23;20171;-65
2022/02/26 15:29:11;;;;;;;0.20;0.10;;;13.60;99.90;;;;;;25433014;23;20215;-66
2022/02/26 15:39:16;;;;;;;0.20;0.10;;;13.70;99.90;;;;;;25422751;23;20210;-67
2022/02/26 15:49:20;;;;;;;0.20;0.10;;;13.70;99.90;;;;;;25407144;23;20207;-66
2022/02/26 15:59:25;;;;;;;0.20;0.10;;;13.70;99.90;;;;;;25434308;23;20167;-66
2022/02/26 16:09:31;;;;;;;0.20;0.10;;;13.70;99.90;;;;;;25434377;23;20243;-66
2022/02/26 16:19:36;;;;;;;0.20;0.10;;;13.60;99.90;;;;;;25437406;23;20172;-66
2022/02/26 16:29:40;;;;;;;0.20;0.10;;;13.40;99.90;;;;;;25438724;23;20207;-66
2022/02/26 16:39:47;;;;;;;0.20;0.10;;;13.20;99.90;;;;;;25438517;23;20211;-67
2022/02/26 16:49:52;;;;;;;0.20;0.10;;;13.20;99.90;;;;;;25437477;23;20183;-68
2022/02/26 16:59:57;;;;;;;0.20;0.10;;;13.00;99.90;;;;;;25437284;23;20243;-67
2022/02/26 17:10:01;;;;;;;0.20;0.10;;;12.90;99.90;;;;;;25436956;23;20249;-67
2022/02/26 17:20:07;;;;;;;0.20;0.00;;;12.80;99.90;;;;;;25434184;23;20234;-68
2022/02/26 17:30:14;;;;;;;0.20;0.10;;;12.60;99.90;;;;;;25404169;23;20207;-67
2022/02/26 17:40:19;;;;;;;0.20;0.10;;;12.60;99.90;;;;;;25425053;23;20191;-68
2022/02/26 17:50:23;;;;;;;0.20;0.10;;;12.50;99.90;;;;;;25409346;23;20202;-65
2022/02/26 18:00:29;;;;;;;0.20;0.10;;;12.30;99.90;;;;;;25436225;23;20183;-64
2022/02/26 18:10:33;;;;;;;0.20;0.10;;;12.40;99.90;;;;;;25431669;23;20191;-65
2022/02/26 18:20:39;;;;;;;0.20;0.10;;;12.30;99.90;;;;;;25430889;23;20171;-65
2022/02/26 18:30:42;;;;;;;0.20;0.10;;;12.40;99.90;;;;;;25430873;23;20199;-65
2022/02/26 18:40:48;;;;;;;0.20;0.10;;;12.40;99.90;;;;;;25407554;23;20266;-78
2022/02/26 18:50:52;;;;;;;0.20;0.10;;;12.30;99.90;;;;;;25436347;23;20179;-78
2022/02/26 19:00:57;;;;;;;0.20;0.10;;;12.20;99.90;;;;;;25412970;23;20175;-83
2022/02/26 19:11:01;;;;;;;0.20;0.00;;;12.30;99.90;;;;;;25440451;23;20211;-86
2022/02/26 19:21:06;;;;;;;0.20;0.10;;;12.20;99.90;;;;;;25438768;23;20178;-82
2022/02/26 19:31:12;;;;;;;0.20;0.10;;;12.20;99.90;;;;;;25434214;23;20199;-80
2022/02/26 19:41:17;;;;;;;0.20;0.00;;;12.20;99.90;;;;;;25439441;23;20204;-80
2022/02/26 19:51:24;;;;;;;0.20;0.10;;;12.10;99.90;;;;;;25440638;23;20180;-81
2022/02/26 20:01:29;;;;;;;0.20;0.10;;;12.10;99.90;;;;;;25441621;23;20167;-82
2022/02/26 20:11:33;;;;;;;0.20;0.10;;;11.70;99.90;;;;;;25440195;23;20202;-64
2022/02/26 20:21:41;;;;;;;0.20;0.10;;;11.50;99.90;;;;;;25416396;23;20192;-66
2022/02/26 20:31:45;;;;;;;0.20;0.10;;;11.40;99.90;;;;;;25434889;23;20196;-86
2022/02/26 20:41:50;;;;;;;0.20;0.10;;;11.40;99.90;;;;;;25439860;23;20191;-86
2022/02/26 20:51:54;;;;;;;0.20;0.10;;;11.30;99.90;;;;;;25440495;23;20187;-82
2022/02/26 21:01:59;;;;;;;0.20;0.10;;;11.30;99.90;;;;;;25446766;23;20171;-81
2022/02/26 21:12:04;;;;;;;0.20;0.10;;;11.20;99.90;;;;;;25448788;23;20180;-79
2022/02/26 21:22:09;;;;;;;0.20;0.10;;;11.30;99.90;;;;;;25448137;23;20168;-83
2022/02/26 21:32:14;;;;;;;0.20;0.10;;;11.40;99.90;;;;;;25447524;23;20199;-64
2022/02/26 21:42:19;;;;;;;0.20;0.10;;;11.30;99.90;;;;;;25447478;23;20205;-65
2022/02/26 21:52:24;;;;;;;0.20;0.10;;;11.20;99.90;;;;;;25446981;23;20207;-65
2022/02/26 22:02:29;;;;;;;0.20;0.10;;;11.10;99.90;;;;;;25446379;23;20179;-67
2022/02/26 22:12:33;;;;;;;0.20;0.00;;;11.00;99.90;;;;;;25440730;23;20191;-70
2022/02/26 22:22:39;;;;;;;0.20;0.10;;;10.90;99.90;;;;;;25437590;23;20168;-69
2022/02/26 22:32:43;;;;;;;0.20;0.10;;;10.70;99.90;;;;;;25418044;23;20214;-68
2022/02/26 22:42:49;;;;;;;0.20;0.10;;;10.30;99.90;;;;;;25442009;23;20211;-76
2022/02/26 22:52:52;;;;;;;0.20;0.10;;;9.80;99.90;;;;;;25441977;23;20203;-74
2022/02/26 23:03:00;;;;;;;0.20;0.10;;;9.50;99.90;;;;;;25442100;23;20164;-73
2022/02/26 23:13:04;;;;;;;0.20;0.10;;;9.40;99.90;;;;;;25443181;23;20191;-74
2022/02/26 23:23:09;;;;;;;0.20;0.10;;;9.20;99.90;;;;;;25442230;23;20178;-74
2022/02/26 23:33:15;;;;;;;0.20;0.10;;;9.30;99.90;;;;;;25441901;23;20196;-75
2022/02/26 23:43:20;;;;;;;0.20;0.10;;;9.10;99.90;;;;;;25429426;23;20223;-72
2022/02/26 23:53:23;;;;;;;0.20;0.00;;;9.00;99.90;;;;;;25439236;23;20203;-72
